Orlando, Florida
Traffic Map
Current Weather Conditions
Orlando, Florida
Few Clouds
Few Clouds
80°
Feels Like: 81°
Wind Chill: 80° Ceiling: Unl
Heat Index: 81° Visibility: 10mi
Dew Point: 59° Wind: 12mph
Humidity: 48% Direction: 210° (SSW)
Pressure: 29.94in Gusts: 0mph
Raw Report DataKORL 201753Z 21010KT 10SM FEW100 27/15 A2994 RMK AO2 SLP142 T02670150 10267 20167 58017
Traffic Incident Summary
Active as of:
Severity:
Category:
InformationThere was an issue retrieving the traffic information for this location. Please try a different location or try again shortly.
Advertisements
Track Severe Weather on mobile